Terminal Aerodrome Forecast
Issued by NWS Mt. Holly, NJ

Home | Current Version | Previous Version | Text Only | Print | Product List | Glossary On
Versions: 1 2 3 4 5 6 7 8 9 10 11 12 13 14 15 16 17 18 19 20
000
FTUS41 KPHI 030520
TAFRDG
TAF
KRDG 030520Z 0306/0406 00000KT P6SM SCT060 BKN200
     FM030800 VRB02KT 6SM BR SCT060 BKN200
     FM031200 05004KT P6SM SCT040 BKN200
     FM031800 18005KT P6SM BKN040=

USA.gov is the U.S. government's official web portal to all federal, state and local government web resources and services.